createdAt,value
2022-12-18T00:01:41.592Z,102367.34
2022-12-18T00:04:20.021Z,102339.50
2022-12-18T00:06:47.513Z,102379.50
2022-12-18T00:09:15.510Z,102392.09
2022-12-18T00:11:42.720Z,102371.00
2022-12-18T00:14:11.873Z,102352.56
2022-12-18T00:16:39.096Z,102330.59
2022-12-18T00:19:06.602Z,102239.13
2022-12-18T00:21:36.231Z,102371.00
2022-12-18T00:24:04.335Z,102389.19
2022-12-18T00:26:38.129Z,102367.19
2022-12-18T00:29:12.385Z,102409.22
2022-12-18T00:31:39.340Z,102413.56
2022-12-18T00:34:07.444Z,102401.03
2022-12-18T00:36:37.757Z,102417.28
2022-12-18T00:39:07.939Z,102396.13
2022-12-18T00:41:53.468Z,102378.16
2022-12-18T00:44:21.003Z,102303.81
2022-12-18T00:46:48.963Z,102425.63
2022-12-18T00:49:20.703Z,102439.78
2022-12-18T00:51:50.924Z,102446.22
2022-12-18T00:54:18.636Z,102336.91
2022-12-18T00:56:49.077Z,102427.69
2022-12-18T00:59:17.809Z,102442.03
2022-12-18T01:01:45.397Z,102432.84
2022-12-18T01:04:12.722Z,102376.31
2022-12-18T01:06:39.545Z,102351.59
2022-12-18T01:09:10.108Z,102456.81
2022-12-18T01:11:41.384Z,102456.28
2022-12-18T01:14:08.123Z,102442.00
2022-12-18T01:16:35.055Z,102413.63
2022-12-18T01:19:01.708Z,102449.00
2022-12-18T01:21:28.494Z,102416.84
2022-12-18T01:23:57.375Z,102388.00
2022-12-18T01:26:25.321Z,102444.50
2022-12-18T01:28:51.934Z,102420.22
2022-12-18T01:31:20.447Z,102437.56
2022-12-18T01:33:47.294Z,102372.63
2022-12-18T01:36:23.413Z,102432.94
2022-12-18T01:38:50.544Z,102452.88
2022-12-18T01:41:19.827Z,102426.22
2022-12-18T01:43:52.835Z,102276.75
2022-12-18T01:46:21.796Z,102446.59
2022-12-18T01:48:55.012Z,102447.31
2022-12-18T01:51:25.498Z,102393.66
2022-12-18T01:53:52.701Z,102429.75
2022-12-18T01:56:23.679Z,102389.31
2022-12-18T01:59:03.351Z,102452.31
2022-12-18T02:01:55.929Z,102451.03
2022-12-18T02:04:27.887Z,102470.03
2022-12-18T02:07:12.889Z,102474.91
2022-12-18T02:10:15.123Z,102483.28
2022-12-18T02:12:56.073Z,102490.56
2022-12-18T02:15:25.194Z,102483.84
2022-12-18T02:18:10.107Z,102482.28
2022-12-18T02:20:52.523Z,102326.09
2022-12-18T02:23:31.548Z,102495.84
2022-12-18T02:26:10.238Z,102496.00
2022-12-18T02:28:47.591Z,102460.78
2022-12-18T02:31:21.156Z,102391.72
2022-12-18T02:33:54.597Z,102498.00
2022-12-18T02:36:26.978Z,102504.19
2022-12-18T02:38:56.021Z,102469.38
2022-12-18T02:41:24.850Z,102475.13
2022-12-18T02:43:58.099Z,102497.59
2022-12-18T02:46:37.738Z,102521.63
2022-12-18T02:49:27.169Z,102532.19
2022-12-18T02:52:00.868Z,102353.88
2022-12-18T02:54:48.543Z,102539.47
2022-12-18T03:00:35.820Z,102552.69
2022-12-18T03:03:21.541Z,102547.53
2022-12-18T03:06:26.723Z,102529.50
2022-12-18T03:09:07.220Z,102547.44
2022-12-18T03:11:57.123Z,102562.97
2022-12-18T03:14:26.952Z,102563.69
2022-12-18T03:16:59.010Z,102560.56
2022-12-18T03:19:30.293Z,102568.59
2022-12-18T03:21:59.781Z,102540.91
2022-12-18T03:24:30.164Z,102569.00
2022-12-18T03:27:03.576Z,102564.03
2022-12-18T03:29:47.872Z,102513.47
2022-12-18T03:32:27.678Z,102565.84
2022-12-18T03:34:58.928Z,102541.06
2022-12-18T03:37:31.315Z,102559.81
2022-12-18T03:39:58.287Z,102573.94
2022-12-18T03:42:42.178Z,102575.41
2022-12-18T03:45:15.530Z,102468.44
2022-12-18T03:48:13.006Z,102575.66
2022-12-18T03:50:54.962Z,102459.06
2022-12-18T03:53:42.433Z,102575.16
2022-12-18T03:56:13.391Z,102572.50
2022-12-18T03:58:42.462Z,102549.16
2022-12-18T04:01:14.529Z,102540.00
2022-12-18T04:03:43.252Z,102591.00
2022-12-18T04:06:12.031Z,102589.34
2022-12-18T04:08:40.985Z,102525.78
2022-12-18T04:11:07.643Z,102565.09
2022-12-18T04:13:40.850Z,102572.84
2022-12-18T04:16:08.161Z,102566.00
2022-12-18T04:18:35.256Z,102597.00
2022-12-18T04:21:02.310Z,102591.00
2022-12-18T04:23:29.383Z,102536.03
2022-12-18T04:25:56.314Z,102584.09
2022-12-18T04:28:24.147Z,102584.44
2022-12-18T04:30:51.016Z,102607.03
2022-12-18T04:33:17.807Z,102590.72
2022-12-18T04:35:44.904Z,102588.13
2022-12-18T04:38:11.564Z,102596.91
2022-12-18T04:40:39.361Z,102638.91
2022-12-18T04:43:07.898Z,102615.94
2022-12-18T04:45:34.994Z,102650.16
2022-12-18T04:48:05.931Z,102594.53
2022-12-18T04:50:34.151Z,102616.75
2022-12-18T04:53:01.160Z,102665.09
2022-12-18T04:55:28.769Z,102663.63
2022-12-18T04:57:58.686Z,102652.25
2022-12-18T05:00:26.044Z,102674.53
2022-12-18T05:02:53.140Z,102621.66
2022-12-18T05:05:19.871Z,102651.84
2022-12-18T05:07:47.287Z,102652.72
2022-12-18T05:10:15.510Z,102676.03
2022-12-18T05:13:01.604Z,102675.06
2022-12-18T05:15:38.167Z,102683.13
2022-12-18T05:18:05.223Z,102677.16
2022-12-18T05:20:32.632Z,102676.78
2022-12-18T05:23:02.327Z,102683.06
2022-12-18T05:25:30.396Z,102694.41
2022-12-18T05:27:57.589Z,102698.63
2022-12-18T05:30:24.782Z,102694.22
2022-12-18T05:32:51.537Z,102699.56
2022-12-18T05:35:18.465Z,102688.63
2022-12-18T05:37:52.269Z,102704.06
2022-12-18T05:40:19.135Z,102688.59
2022-12-18T05:42:47.798Z,102700.84
2022-12-18T05:45:16.420Z,102680.38
2022-12-18T05:47:43.168Z,102716.47
2022-12-18T05:50:10.284Z,102730.34
2022-12-18T05:52:37.198Z,102717.19
2022-12-18T05:55:06.719Z,102697.44
2022-12-18T05:57:36.644Z,102720.94
2022-12-18T06:00:06.975Z,102728.16
2022-12-18T06:02:33.836Z,102703.19
2022-12-18T06:05:01.428Z,102723.78
2022-12-18T06:07:28.132Z,102738.53
2022-12-18T06:09:54.855Z,102651.19
2022-12-18T06:12:22.207Z,102751.75
2022-12-18T06:14:49.259Z,102718.44
2022-12-18T06:17:15.936Z,102738.81
2022-12-18T06:19:45.384Z,102750.19
2022-12-18T06:22:12.043Z,102697.50
2022-12-18T06:24:38.872Z,102752.97
2022-12-18T06:27:05.470Z,102750.81
2022-12-18T06:29:32.129Z,102723.53
2022-12-18T06:31:58.899Z,102731.38
2022-12-18T06:34:25.636Z,102678.38
2022-12-18T06:36:52.273Z,102769.19
2022-12-18T06:39:19.076Z,102793.38
2022-12-18T06:41:48.693Z,102781.53
2022-12-18T06:44:15.514Z,102778.91
2022-12-18T06:46:45.396Z,102752.25
2022-12-18T06:49:12.458Z,102805.63
2022-12-18T06:51:42.746Z,102787.63
2022-12-18T06:54:09.842Z,102795.81
2022-12-18T06:56:41.405Z,102809.78
2022-12-18T06:59:10.182Z,102811.16
2022-12-18T07:01:37.021Z,102813.81
2022-12-18T07:04:05.042Z,102782.59
2022-12-18T07:06:34.546Z,102808.56
2022-12-18T07:09:02.932Z,102822.19
2022-12-18T07:11:29.674Z,102792.84
2022-12-18T07:13:56.460Z,102831.81
2022-12-18T07:16:29.500Z,102722.66
2022-12-18T07:18:57.481Z,102848.69
2022-12-18T07:21:36.965Z,102822.22
2022-12-18T07:24:11.078Z,102797.81
2022-12-18T07:26:37.992Z,102853.88
2022-12-18T07:29:06.999Z,102816.94
2022-12-18T07:31:33.750Z,102823.03
2022-12-18T07:34:03.330Z,102775.50
2022-12-18T07:36:34.231Z,102847.94
2022-12-18T07:39:05.619Z,102858.09
2022-12-18T07:41:32.604Z,102817.75
2022-12-18T07:43:59.384Z,102860.06
2022-12-18T07:46:26.186Z,102857.88
2022-12-18T07:48:53.032Z,102875.78
2022-12-18T07:51:22.830Z,102876.47
2022-12-18T07:53:52.243Z,102857.41
2022-12-18T07:56:29.081Z,102826.16
2022-12-18T07:58:57.863Z,102874.97
2022-12-18T08:01:24.812Z,102881.84
2022-12-18T08:03:51.661Z,102888.19
2022-12-18T08:06:24.523Z,102847.41
2022-12-18T08:09:01.123Z,102880.84
2022-12-18T08:11:29.773Z,102876.22
2022-12-18T08:14:03.164Z,102876.13
2022-12-18T08:16:30.132Z,102815.88
2022-12-18T08:18:58.252Z,102655.53
2022-12-18T08:21:27.791Z,102838.13
2022-12-18T08:23:56.380Z,102807.03
2022-12-18T08:26:24.451Z,102764.09
2022-12-18T08:28:51.905Z,102921.78
2022-12-18T08:31:22.157Z,102883.06
2022-12-18T08:33:52.390Z,102895.31
2022-12-18T08:36:20.790Z,102889.03
2022-12-18T08:38:50.528Z,102933.16
2022-12-18T08:41:21.582Z,102939.38
2022-12-18T08:44:10.445Z,102843.75
2022-12-18T08:46:43.948Z,102954.75
2022-12-18T08:49:15.746Z,102951.19
2022-12-18T08:51:42.508Z,102916.69
2022-12-18T08:54:13.588Z,102917.72
2022-12-18T08:56:40.573Z,102962.50
2022-12-18T08:59:17.587Z,102926.19
2022-12-18T09:01:56.747Z,102975.31
2022-12-18T09:04:28.239Z,102976.25
2022-12-18T09:07:00.681Z,102972.97
2022-12-18T09:09:36.570Z,102988.31
2022-12-18T09:12:04.506Z,102972.06
2022-12-18T09:14:31.173Z,102921.09
2022-12-18T09:16:58.161Z,102994.50
2022-12-18T09:19:28.859Z,102967.78
2022-12-18T09:22:00.581Z,102990.88
2022-12-18T09:24:31.406Z,103009.97
2022-12-18T09:27:01.017Z,102966.53
2022-12-18T09:29:27.694Z,102973.97
2022-12-18T09:31:54.666Z,103009.00
2022-12-18T09:34:24.883Z,102990.22
2022-12-18T09:36:52.010Z,103012.47
2022-12-18T09:39:21.844Z,102851.16
2022-12-18T09:41:51.141Z,103006.09
2022-12-18T09:44:47.446Z,103004.41
2022-12-18T09:47:29.730Z,102999.09
2022-12-18T09:50:03.886Z,103007.00
2022-12-18T09:52:53.522Z,103002.56
2022-12-18T09:55:42.489Z,102969.97
2022-12-18T09:58:33.329Z,102961.22
2022-12-18T10:01:38.927Z,102927.44
2022-12-18T10:04:10.376Z,102968.34
2022-12-18T10:06:46.694Z,102991.50
2022-12-18T10:09:29.565Z,102985.34
2022-12-18T10:12:19.208Z,102981.03
2022-12-18T10:15:09.384Z,102907.28
2022-12-18T10:17:47.008Z,102916.81
2022-12-18T10:20:55.729Z,102975.63
2022-12-18T10:23:38.097Z,102980.91
2022-12-18T10:26:13.750Z,102958.38
2022-12-18T10:28:45.250Z,102957.38
2022-12-18T10:31:21.540Z,102929.84
2022-12-18T10:33:51.915Z,102963.00
2022-12-18T10:36:20.209Z,102959.22
2022-12-18T10:38:48.791Z,102962.53
2022-12-18T10:41:29.754Z,102940.72
2022-12-18T10:44:21.374Z,102954.56
2022-12-18T10:46:50.924Z,102951.81
2022-12-18T10:49:35.901Z,102941.81
2022-12-18T10:52:18.574Z,102934.72
2022-12-18T10:55:05.265Z,102954.53
2022-12-18T10:57:44.585Z,102917.19
2022-12-18T11:00:31.770Z,102921.69
2022-12-18T11:02:59.168Z,102933.88
2022-12-18T11:05:32.853Z,102936.44
2022-12-18T11:08:01.175Z,102935.88
2022-12-18T11:10:40.338Z,102923.63
2022-12-18T11:13:12.883Z,102867.16
2022-12-18T11:15:45.617Z,102805.84
2022-12-18T11:18:18.937Z,102922.34
2022-12-18T11:20:58.184Z,102953.94
2022-12-18T11:23:28.174Z,102929.91
2022-12-18T11:26:04.314Z,102905.84
2022-12-18T11:28:45.008Z,102908.00
2022-12-18T11:31:27.468Z,102930.19
2022-12-18T11:34:30.284Z,102940.44
2022-12-18T11:36:50.354Z,102928.41
2022-12-18T11:39:41.492Z,102954.13
2022-12-18T11:42:23.933Z,102938.66
2022-12-18T11:45:09.696Z,102952.22
2022-12-18T11:48:13.454Z,102954.34
2022-12-18T11:50:55.740Z,102944.88
2022-12-18T11:53:25.468Z,102939.03
2022-12-18T11:56:24.058Z,102937.69
2022-12-18T11:58:54.711Z,102942.19
2022-12-18T12:01:46.474Z,102943.84
2022-12-18T12:04:17.804Z,102929.84
2022-12-18T12:07:02.809Z,102931.50
2022-12-18T12:09:48.165Z,102928.91
2022-12-18T12:12:15.970Z,102930.69
2022-12-18T12:15:21.719Z,102912.56
2022-12-18T12:18:19.583Z,102920.00
2022-12-18T12:20:58.338Z,102832.88
2022-12-18T12:24:02.865Z,102920.38
2022-12-18T12:26:51.480Z,102916.34
2022-12-18T12:29:56.145Z,102908.31
2022-12-18T12:32:48.873Z,102917.25
2022-12-18T12:35:23.861Z,102924.28
2022-12-18T12:38:15.071Z,102926.81
2022-12-18T12:41:03.265Z,102903.75
2022-12-18T12:43:50.599Z,102928.84
2022-12-18T12:46:22.905Z,102921.53
2022-12-18T12:49:00.270Z,102922.47
2022-12-18T12:51:35.633Z,102868.44
2022-12-18T12:54:06.655Z,102794.00
2022-12-18T12:56:51.381Z,102932.47
2022-12-18T13:00:13.161Z,102875.84
2022-12-18T13:02:56.235Z,102928.31
2022-12-18T13:05:40.883Z,102921.16
2022-12-18T13:08:12.863Z,102892.06
2022-12-18T13:10:42.883Z,102898.91
2022-12-18T13:13:24.276Z,102904.09
2022-12-18T13:16:10.467Z,102898.66
2022-12-18T13:18:49.225Z,102876.44
2022-12-18T13:21:53.741Z,102931.59
2022-12-18T13:24:28.325Z,102933.16
2022-12-18T13:27:01.702Z,102817.06
2022-12-18T13:29:46.822Z,102905.81
2022-12-18T13:32:27.107Z,102787.13
2022-12-18T13:35:22.677Z,102938.44
2022-12-18T13:37:54.726Z,102909.41
2022-12-18T13:40:40.789Z,102938.75
2022-12-18T13:43:20.428Z,102941.34
2022-12-18T13:46:05.594Z,102882.03
2022-12-18T13:48:38.080Z,102902.56
2022-12-18T13:51:15.556Z,102757.31
2022-12-18T13:54:00.412Z,102940.63
2022-12-18T13:56:30.792Z,102907.81
2022-12-18T13:59:22.830Z,102926.44
2022-12-18T14:01:56.493Z,102930.91
2022-12-18T14:04:30.795Z,102938.00
2022-12-18T14:07:17.620Z,102913.91
2022-12-18T14:10:01.962Z,102934.59
2022-12-18T14:13:03.285Z,102917.47
2022-12-18T14:15:46.078Z,102886.78
2022-12-18T14:18:45.469Z,102912.31
2022-12-18T14:21:32.965Z,102899.47
2022-12-18T14:24:23.005Z,102734.38
2022-12-18T14:26:52.541Z,102798.16
2022-12-18T14:29:37.105Z,102786.72
2022-12-18T14:32:19.031Z,102939.19
2022-12-18T14:34:48.200Z,102936.59
2022-12-18T14:37:29.088Z,102910.06
2022-12-18T14:40:10.829Z,102939.44
2022-12-18T14:42:43.996Z,102721.66
2022-12-18T14:45:41.051Z,102949.19
2022-12-18T14:48:43.445Z,102917.34
2022-12-18T14:51:21.672Z,102884.69
2022-12-18T14:53:55.371Z,102880.31
2022-12-18T14:56:33.027Z,102949.25
2022-12-18T14:59:24.758Z,102956.38
2022-12-18T15:02:11.901Z,102889.25
2022-12-18T15:04:43.326Z,102932.31
2022-12-18T15:07:18.737Z,102951.44
2022-12-18T15:10:17.986Z,102948.88
2022-12-18T15:13:00.807Z,102928.22
2022-12-18T15:15:46.005Z,102945.41
2022-12-18T15:18:18.918Z,102882.09
2022-12-18T15:20:56.836Z,102949.97
2022-12-18T15:23:46.146Z,102938.09
2022-12-18T15:26:16.896Z,102883.88
2022-12-18T15:28:58.468Z,102930.66
2022-12-18T15:31:38.588Z,102957.59
2022-12-18T15:34:26.715Z,102751.66
2022-12-18T15:36:53.573Z,102966.13
2022-12-18T15:39:20.461Z,102956.72
2022-12-18T15:42:07.184Z,102969.81
2022-12-18T15:44:34.619Z,102966.63
2022-12-18T15:47:04.585Z,102976.28
2022-12-18T15:49:31.797Z,102960.06
2022-12-18T15:52:14.027Z,102979.44
2022-12-18T15:54:59.282Z,102931.47
2022-12-18T15:57:25.991Z,102974.63
2022-12-18T15:59:54.201Z,102976.34
2022-12-18T16:02:25.940Z,102945.34
2022-12-18T16:04:58.275Z,102986.81
2022-12-18T16:07:27.348Z,102989.50
2022-12-18T16:09:57.664Z,102991.44
2022-12-18T16:12:28.867Z,102789.38
2022-12-18T16:14:55.565Z,102984.53
2022-12-18T16:17:23.165Z,103001.31
2022-12-18T16:19:50.060Z,102959.34
2022-12-18T16:22:27.277Z,102930.28
2022-12-18T16:24:57.614Z,102979.41
2022-12-18T16:27:27.856Z,102919.41
2022-12-18T16:29:58.131Z,103008.22
2022-12-18T16:32:30.153Z,102954.00
2022-12-18T16:35:04.893Z,103007.44
2022-12-18T16:37:32.475Z,102986.72
2022-12-18T16:39:59.297Z,103004.69
2022-12-18T16:42:26.551Z,102988.44
2022-12-18T16:44:53.368Z,102975.72
2022-12-18T16:47:21.638Z,102981.00
2022-12-18T16:49:51.851Z,102983.69
2022-12-18T16:52:19.349Z,102981.22
2022-12-18T16:54:46.480Z,103005.47
2022-12-18T16:57:14.696Z,102972.44
2022-12-18T16:59:41.498Z,103007.16
2022-12-18T17:02:19.165Z,103005.00
2022-12-18T17:04:50.815Z,102987.25
2022-12-18T17:07:17.592Z,102992.66
2022-12-18T17:09:44.967Z,103020.34
2022-12-18T17:12:11.962Z,103020.41
2022-12-18T17:14:41.525Z,103014.44
2022-12-18T17:17:24.251Z,103009.66
2022-12-18T17:19:52.646Z,103003.56
2022-12-18T17:22:20.558Z,103029.63
2022-12-18T17:24:48.062Z,103028.97
2022-12-18T17:27:15.443Z,103040.78
2022-12-18T17:29:47.244Z,102993.47
2022-12-18T17:32:16.223Z,103048.03
2022-12-18T17:34:43.075Z,103048.81
2022-12-18T17:37:12.341Z,102921.22
2022-12-18T17:39:42.769Z,103049.56
2022-12-18T17:42:14.986Z,103043.63
2022-12-18T17:44:42.778Z,103010.22
2022-12-18T17:47:13.149Z,103050.66
2022-12-18T17:49:43.054Z,103006.78
2022-12-18T17:52:09.998Z,102983.44
2022-12-18T17:54:46.453Z,103049.97
2022-12-18T17:57:14.917Z,103057.84
2022-12-18T17:59:43.209Z,102977.06
2022-12-18T18:02:12.085Z,103060.13
2022-12-18T18:04:39.246Z,103018.00
2022-12-18T18:07:06.213Z,103068.28
2022-12-18T18:09:33.188Z,103038.97
2022-12-18T18:12:18.390Z,102945.91
2022-12-18T18:14:45.182Z,103047.44
2022-12-18T18:17:12.001Z,103057.16
2022-12-18T18:19:38.651Z,103078.84
2022-12-18T18:22:06.566Z,103066.59
2022-12-18T18:24:33.578Z,102947.59
2022-12-18T18:27:00.312Z,103049.47
2022-12-18T18:29:30.465Z,103084.09
2022-12-18T18:31:57.596Z,103056.41
2022-12-18T18:34:30.485Z,103004.91
2022-12-18T18:37:01.942Z,103076.41
2022-12-18T18:39:29.159Z,103078.16
2022-12-18T18:41:56.304Z,103073.06
2022-12-18T18:44:26.079Z,103054.16
2022-12-18T18:46:57.502Z,103074.00
2022-12-18T18:49:28.185Z,103012.72
2022-12-18T18:51:59.271Z,103007.75
2022-12-18T18:54:27.975Z,103087.19
2022-12-18T18:59:42.809Z,103074.81
2022-12-18T19:02:15.588Z,103051.78
2022-12-18T19:04:46.668Z,103080.47
2022-12-18T19:07:30.420Z,103034.69
2022-12-18T19:10:04.761Z,103081.38
2022-12-18T19:12:51.129Z,103077.03
2022-12-18T19:15:18.086Z,103078.41
2022-12-18T19:17:46.060Z,103073.34
2022-12-18T19:20:15.313Z,102937.31
2022-12-18T19:22:42.259Z,103070.22
2022-12-18T19:25:17.532Z,103088.91
2022-12-18T19:27:50.200Z,103081.22
2022-12-18T19:30:25.825Z,103024.44
2022-12-18T19:32:55.366Z,103063.31
2022-12-18T19:35:22.037Z,102886.59
2022-12-18T19:37:49.537Z,103059.03
2022-12-18T19:40:16.547Z,103055.91
2022-12-18T19:42:43.201Z,103048.38
2022-12-18T19:45:10.303Z,103045.81
2022-12-18T19:47:37.218Z,103034.06
2022-12-18T19:50:04.403Z,103075.66
2022-12-18T19:52:36.053Z,103029.84
2022-12-18T19:55:04.022Z,103071.72
2022-12-18T19:57:31.974Z,103077.91
2022-12-18T20:00:06.689Z,103079.69
2022-12-18T20:02:36.560Z,102941.78
2022-12-18T20:05:09.829Z,103047.13
2022-12-18T20:07:37.684Z,103041.06
2022-12-18T20:10:15.483Z,103012.66
2022-12-18T20:12:46.711Z,103087.97
2022-12-18T20:15:13.456Z,103089.91
2022-12-18T20:17:40.388Z,103086.53
2022-12-18T20:20:08.231Z,103091.84
2022-12-18T20:22:35.408Z,103090.19
2022-12-18T20:25:03.403Z,103091.81
2022-12-18T20:27:30.207Z,103084.09
2022-12-18T20:29:57.178Z,103087.53
2022-12-18T20:32:26.266Z,103053.63
2022-12-18T20:34:56.190Z,103079.03
2022-12-18T20:37:27.649Z,103094.47
2022-12-18T20:39:55.262Z,103067.66
2022-12-18T20:42:22.183Z,103058.16
2022-12-18T20:44:51.717Z,103057.19
2022-12-18T20:47:22.059Z,103080.72
2022-12-18T20:49:49.053Z,103083.53
2022-12-18T20:52:15.962Z,103095.75
2022-12-18T20:54:49.016Z,103093.38
2022-12-18T20:57:15.787Z,103098.69
2022-12-18T20:59:47.969Z,103047.97
2022-12-18T21:02:15.787Z,103092.28
2022-12-18T21:04:43.015Z,103107.16
2022-12-18T21:07:10.864Z,102987.38
2022-12-18T21:09:42.314Z,103118.78
2022-12-18T21:12:45.229Z,103099.91
2022-12-18T21:15:16.646Z,103109.63
2022-12-18T21:17:45.197Z,103075.78
2022-12-18T21:20:19.196Z,103113.88
2022-12-18T21:22:47.380Z,102962.72
2022-12-18T21:25:17.228Z,103042.28
2022-12-18T21:27:46.688Z,103134.84
2022-12-18T21:30:15.271Z,103138.31
2022-12-18T21:32:42.316Z,103121.03
2022-12-18T21:35:09.801Z,103121.75
2022-12-18T21:37:37.245Z,103107.75
2022-12-18T21:40:11.488Z,103130.06
2022-12-18T21:42:56.940Z,102974.63
2022-12-18T21:45:24.485Z,103004.59
2022-12-18T21:47:51.448Z,103116.06
2022-12-18T21:50:21.351Z,103047.03
2022-12-18T21:52:51.269Z,103014.06
2022-12-18T21:55:54.768Z,103019.13
2022-12-18T21:58:24.380Z,102917.50
2022-12-18T22:00:53.604Z,102882.94
2022-12-18T22:03:20.547Z,103116.97
2022-12-18T22:05:50.591Z,103145.84
2022-12-18T22:08:29.256Z,103013.56
2022-12-18T22:10:58.561Z,103141.66
2022-12-18T22:13:27.809Z,103055.94
2022-12-18T22:15:58.769Z,103116.34
2022-12-18T22:18:30.785Z,103154.59
2022-12-18T22:21:04.624Z,103129.69
2022-12-18T22:23:34.595Z,102900.78
2022-12-18T22:26:04.660Z,103064.94
2022-12-18T22:28:50.095Z,103107.31
2022-12-18T22:31:22.941Z,103122.31
2022-12-18T22:33:49.799Z,103137.97
2022-12-18T22:36:16.581Z,103132.94
2022-12-18T22:38:49.361Z,103142.50
2022-12-18T22:41:45.396Z,103101.81
2022-12-18T22:44:15.044Z,103143.34
2022-12-18T22:47:00.618Z,103140.66
2022-12-18T22:49:38.718Z,103001.88
2022-12-18T22:52:09.535Z,103128.09
2022-12-18T22:54:36.640Z,103098.81
2022-12-18T22:57:05.517Z,103128.13
2022-12-18T22:59:43.967Z,103135.16
2022-12-18T23:02:13.609Z,103063.25
2022-12-18T23:04:44.797Z,103146.34
2022-12-18T23:09:39.631Z,103152.63
2022-12-18T23:12:35.146Z,103135.47
2022-12-18T23:15:05.614Z,103105.97
2022-12-18T23:17:38.755Z,103110.41
2022-12-18T23:20:07.031Z,102900.41
2022-12-18T23:22:36.337Z,103081.97
2022-12-18T23:25:15.374Z,103161.56
2022-12-18T23:27:42.200Z,103174.84
2022-12-18T23:30:10.273Z,103154.72
2022-12-18T23:32:40.187Z,103156.31
2022-12-18T23:35:07.545Z,103119.06
2022-12-18T23:37:58.616Z,103115.56
2022-12-18T23:40:25.914Z,103088.63
2022-12-18T23:42:52.582Z,103131.97
2022-12-18T23:45:20.458Z,103105.97
2022-12-18T23:47:53.697Z,103055.84
2022-12-18T23:50:23.779Z,103078.81
2022-12-18T23:53:05.372Z,102932.94
2022-12-18T23:55:33.777Z,103093.66
2022-12-18T23:58:01.006Z,102866.94
